Thunder radar more information blitzortung!


Radar de pluja more information rain snow radar


Visita la nostra xarxa de llocs de meteo:

Template documentation
and downloads

And another site



No particular awareness of the weather is required.    There are no Weather-warnings

Pagina Historial Weather Underground text

Diari Resum Juliol 12, 2017 Unitats:  Tant    Imperial   Mètric
« Previous Dia
SegĂźent Dia »
Diari Setmana Mensual Anual Personalitzada
  Maxima: Minima: Media:
Temperatura: 97.5 °F /  36.4 °C 71.8 °F /  22.1 °C 84.2 °F /  29 °C
Punt de rosada: 70.9 °F /  21.6 °C 63.3 °F /  17.4 °C 67.5 °F /  19.7 °C
Humitat: 83 % 40 % 59 %
Wind Speed: 13.8 mph /  22.2 km/h - 5.6 mph /  9 km/h
RĂ fegues de vent: 13.8 mph /  22.2 km/h - -
Vent:- - SE
Pression baro: 30.1 in /  1017.8 hPa 29.9 in /  1012.8 hPa -
Precipitacions: 0 in /  0.0 mm    
Historical Graphs
 
 
Dades de taula per Juliol 12, 2017
Temps Temperatura Punt de rosada Pression baro Vent Wind Speed RĂ fegues de vent Humitat Rainfall Rate (Hourly)
00:01 75.4 °F /  24.1 °C 68.7 °F /  20.4 °C 30 in /  1015.8 hPa SE 4.9 mph /  7.9 km/h 4.9 mph /  7.9 km/h 80 % 0 in /  0.0 mm
00:06 75.4 °F /  24.1 °C 68.7 °F /  20.4 °C 30 in /  1015.8 hPa SE 4.6 mph /  7.4 km/h 4.6 mph /  7.4 km/h 80 % 0 in /  0.0 mm
04:15 77.4 °F /  25.2 °C 69.3 °F /  20.7 °C 30 in /  1015.8 hPa SW 1 mph /  1.6 km/h 2 mph /  3.2 km/h 76 % 0 in /  0.0 mm
04:25 78.3 °F /  25.7 °C 69.6 °F /  20.9 °C 30 in /  1015.8 hPa SSW 1 mph /  1.6 km/h 2 mph /  3.2 km/h 75 % 0 in /  0.0 mm
04:45 79.2 °F /  26.2 °C 69.8 °F /  21.0 °C 30 in /  1015.8 hPa West 2 mph /  3.2 km/h 3 mph /  4.8 km/h 73 % 0 in /  0.0 mm
04:55 80.6 °F /  27.0 °C 70 °F /  21.1 °C 30 in /  1015.8 hPa West 1 mph /  1.6 km/h 2 mph /  3.2 km/h 70 % 0 in /  0.0 mm
05:05 81.5 °F /  27.5 °C 70 °F /  21.1 °C 30 in /  1016.8 hPa SE 2 mph /  3.2 km/h 3 mph /  4.8 km/h 68 % 0 in /  0.0 mm
05:15 82 °F /  27.8 °C 70.3 °F /  21.3 °C 30 in /  1015.8 hPa South 1 mph /  1.6 km/h 4 mph /  6.4 km/h 68 % 0 in /  0.0 mm
05:25 82.9 °F /  28.3 °C 70 °F /  21.1 °C 30 in /  1015.8 hPa SSW 1 mph /  1.6 km/h 3 mph /  4.8 km/h 65 % 0 in /  0.0 mm
10:33 83.3 °F /  28.5 °C 69.8 °F /  21.0 °C 30 in /  1015.8 hPa West 3.5 mph /  5.6 km/h 3.5 mph /  5.6 km/h 64 % 0 in /  0.0 mm
10:38 83.7 °F /  28.7 °C 70.2 °F /  21.2 °C 30 in /  1014.8 hPa West 3.5 mph /  5.6 km/h 3.5 mph /  5.6 km/h 64 % 0 in /  0.0 mm
10:43 83.3 °F /  28.5 °C 69.8 °F /  21.0 °C 30 in /  1014.8 hPa WSW 5.8 mph /  9.3 km/h 5.8 mph /  9.3 km/h 64 % 0 in /  0.0 mm
10:48 84 °F /  28.9 °C 70.2 °F /  21.2 °C 30 in /  1014.8 hPa WNW 4.6 mph /  7.4 km/h 4.6 mph /  7.4 km/h 63 % 0 in /  0.0 mm
10:53 85.8 °F /  29.9 °C 70.9 °F /  21.6 °C 30 in /  1015.8 hPa South 2.9 mph /  4.7 km/h 2.9 mph /  4.7 km/h 61 % 0 in /  0.0 mm
10:58 85.3 °F /  29.6 °C 70.3 °F /  21.3 °C 30 in /  1015.8 hPa WSW 4.6 mph /  7.4 km/h 4.6 mph /  7.4 km/h 61 % 0 in /  0.0 mm
11:03 84.6 °F /  29.2 °C 69.6 °F /  20.9 °C 30 in /  1015.8 hPa West 5.8 mph /  9.3 km/h 5.8 mph /  9.3 km/h 61 % 0 in /  0.0 mm
11:08 84.4 °F /  29.1 °C 69.4 °F /  20.8 °C 30 in /  1015.8 hPa South 3.8 mph /  6.1 km/h 3.8 mph /  6.1 km/h 61 % 0 in /  0.0 mm
11:13 85.1 °F /  29.5 °C 69.6 °F /  20.9 °C 30 in /  1015.8 hPa SE 5.8 mph /  9.3 km/h 5.8 mph /  9.3 km/h 60 % 0 in /  0.0 mm
11:18 86.2 °F /  30.1 °C 70.2 °F /  21.2 °C 30 in /  1015.8 hPa SSW 4.6 mph /  7.4 km/h 4.6 mph /  7.4 km/h 59 % 0 in /  0.0 mm
11:23 85.6 °F /  29.8 °C 69.3 °F /  20.7 °C 30 in /  1015.8 hPa SSW 3.1 mph /  5.0 km/h 3.1 mph /  5.0 km/h 58 % 0 in /  0.0 mm
11:28 87.4 °F /  30.8 °C 70.3 °F /  21.3 °C 30 in /  1015.8 hPa SW 4.6 mph /  7.4 km/h 4.6 mph /  7.4 km/h 57 % 0 in /  0.0 mm
11:33 87.8 °F /  31.0 °C 69.6 °F /  20.9 °C 30 in /  1015.8 hPa SSW 4.6 mph /  7.4 km/h 4.6 mph /  7.4 km/h 55 % 0 in /  0.0 mm
11:38 87.6 °F /  30.9 °C 69.4 °F /  20.8 °C 30 in /  1015.8 hPa South 6.7 mph /  10.8 km/h 6.7 mph /  10.8 km/h 55 % 0 in /  0.0 mm
11:43 87.4 °F /  30.8 °C 68.7 °F /  20.4 °C 30 in /  1015.8 hPa SSW 4.6 mph /  7.4 km/h 4.6 mph /  7.4 km/h 54 % 0 in /  0.0 mm
11:48 87.8 °F /  31.0 °C 69.1 °F /  20.6 °C 30 in /  1015.8 hPa SSW 5.8 mph /  9.3 km/h 5.8 mph /  9.3 km/h 54 % 0 in /  0.0 mm
11:53 88.5 °F /  31.4 °C 69.3 °F /  20.7 °C 30 in /  1014.8 hPa SW 3.5 mph /  5.6 km/h 3.5 mph /  5.6 km/h 53 % 0 in /  0.0 mm
11:58 88.9 °F /  31.6 °C 69.1 °F /  20.6 °C 30 in /  1014.8 hPa SW 6.9 mph /  11.1 km/h 6.9 mph /  11.1 km/h 52 % 0 in /  0.0 mm
12:03 88.7 °F /  31.5 °C 68.2 °F /  20.1 °C 30 in /  1014.8 hPa WSW 5.8 mph /  9.3 km/h 5.8 mph /  9.3 km/h 51 % 0 in /  0.0 mm
12:08 89.6 °F /  32.0 °C 69.1 °F /  20.6 °C 30 in /  1014.8 hPa West 6.4 mph /  10.3 km/h 6.4 mph /  10.3 km/h 51 % 0 in /  0.0 mm
12:13 89.8 °F /  32.1 °C 68.2 °F /  20.1 °C 30 in /  1014.8 hPa South 3.5 mph /  5.6 km/h 3.5 mph /  5.6 km/h 49 % 0 in /  0.0 mm
12:18 90 °F /  32.2 °C 68.2 °F /  20.1 °C 30 in /  1014.8 hPa WNW 6.9 mph /  11.1 km/h 6.9 mph /  11.1 km/h 49 % 0 in /  0.0 mm
12:23 89.8 °F /  32.1 °C 68.2 °F /  20.1 °C 30 in /  1014.8 hPa WSW 4.6 mph /  7.4 km/h 4.6 mph /  7.4 km/h 49 % 0 in /  0.0 mm
12:28 90.3 °F /  32.4 °C 68.5 °F /  20.3 °C 30 in /  1014.8 hPa South 4.7 mph /  7.6 km/h 4.7 mph /  7.6 km/h 49 % 0 in /  0.0 mm
12:33 90.5 °F /  32.5 °C 68.7 °F /  20.4 °C 30 in /  1014.8 hPa WSW 5.8 mph /  9.3 km/h 5.8 mph /  9.3 km/h 49 % 0 in /  0.0 mm
12:38 91 °F /  32.8 °C 68.5 °F /  20.3 °C 30 in /  1014.8 hPa SSE 3.6 mph /  5.8 km/h 3.6 mph /  5.8 km/h 48 % 0 in /  0.0 mm
12:43 92.3 °F /  33.5 °C 69.3 °F /  20.7 °C 30 in /  1014.8 hPa SW 6.9 mph /  11.1 km/h 6.9 mph /  11.1 km/h 47 % 0 in /  0.0 mm
12:48 91.9 °F /  33.3 °C 68.2 °F /  20.1 °C 30 in /  1014.8 hPa SSW 3.5 mph /  5.6 km/h 3.5 mph /  5.6 km/h 46 % 0 in /  0.0 mm
12:53 93.2 °F /  34.0 °C 69.3 °F /  20.7 °C 30 in /  1014.8 hPa SE 2.4 mph /  3.9 km/h 2.4 mph /  3.9 km/h 46 % 0 in /  0.0 mm
12:58 92.7 °F /  33.7 °C 68.9 °F /  20.5 °C 30 in /  1014.8 hPa WSW 4.6 mph /  7.4 km/h 4.6 mph /  7.4 km/h 46 % 0 in /  0.0 mm
13:03 92.7 °F /  33.7 °C 68.9 °F /  20.5 °C 30 in /  1014.8 hPa SW 7.1 mph /  11.4 km/h 7.1 mph /  11.4 km/h 46 % 0 in /  0.0 mm
13:08 91.9 °F /  33.3 °C 68.2 °F /  20.1 °C 29.9 in /  1013.8 hPa SW 3.5 mph /  5.6 km/h 3.5 mph /  5.6 km/h 46 % 0 in /  0.0 mm
13:13 91.2 °F /  32.9 °C 67.5 °F /  19.7 °C 29.9 in /  1013.8 hPa NNE 4.6 mph /  7.4 km/h 4.6 mph /  7.4 km/h 46 % 0 in /  0.0 mm
13:18 92.7 °F /  33.7 °C 68.9 °F /  20.5 °C 29.9 in /  1013.8 hPa SW 5.8 mph /  9.3 km/h 5.8 mph /  9.3 km/h 46 % 0 in /  0.0 mm
13:23 92.8 °F /  33.8 °C 68.4 °F /  20.2 °C 29.9 in /  1013.8 hPa SW 5.8 mph /  9.3 km/h 5.8 mph /  9.3 km/h 45 % 0 in /  0.0 mm
13:28 92.1 °F /  33.4 °C 67.1 °F /  19.5 °C 29.9 in /  1013.8 hPa NE 2.4 mph /  3.9 km/h 2.4 mph /  3.9 km/h 44 % 0 in /  0.0 mm
13:33 93.2 °F /  34.0 °C 67.5 °F /  19.7 °C 29.9 in /  1013.8 hPa West 3.5 mph /  5.6 km/h 3.5 mph /  5.6 km/h 43 % 0 in /  0.0 mm
13:38 93.6 °F /  34.2 °C 68.4 °F /  20.2 °C 29.9 in /  1012.8 hPa SW 7.6 mph /  12.2 km/h 7.6 mph /  12.2 km/h 44 % 0 in /  0.0 mm
13:43 92.7 °F /  33.7 °C 66.9 °F /  19.4 °C 29.9 in /  1012.8 hPa WSW 2.6 mph /  4.2 km/h 2.6 mph /  4.2 km/h 43 % 0 in /  0.0 mm
13:48 94.5 °F /  34.7 °C 68.5 °F /  20.3 °C 29.9 in /  1012.8 hPa West 2.3 mph /  3.7 km/h 2.3 mph /  3.7 km/h 43 % 0 in /  0.0 mm
13:53 95 °F /  35.0 °C 68.4 °F /  20.2 °C 29.9 in /  1013.8 hPa West 3.5 mph /  5.6 km/h 3.5 mph /  5.6 km/h 42 % 0 in /  0.0 mm
13:58 94.3 °F /  34.6 °C 66.9 °F /  19.4 °C 29.9 in /  1013.8 hPa WSW 5.8 mph /  9.3 km/h 5.8 mph /  9.3 km/h 41 % 0 in /  0.0 mm
14:03 94.6 °F /  34.8 °C 67.3 °F /  19.6 °C 29.9 in /  1013.8 hPa East 6 mph /  9.7 km/h 6 mph /  9.7 km/h 41 % 0 in /  0.0 mm
14:08 93 °F /  33.9 °C 66.6 °F /  19.2 °C 29.9 in /  1013.8 hPa ESE 3.3 mph /  5.3 km/h 3.3 mph /  5.3 km/h 42 % 0 in /  0.0 mm
14:13 93.9 °F /  34.4 °C 67.3 °F /  19.6 °C 29.9 in /  1013.8 hPa SW 5.8 mph /  9.3 km/h 5.8 mph /  9.3 km/h 42 % 0 in /  0.0 mm
14:18 93.7 °F /  34.3 °C 67.3 °F /  19.6 °C 29.9 in /  1013.8 hPa ESE 6.9 mph /  11.1 km/h 6.9 mph /  11.1 km/h 42 % 0 in /  0.0 mm
14:23 94.1 °F /  34.5 °C 66.7 °F /  19.3 °C 29.9 in /  1013.8 hPa ESE 3.5 mph /  5.6 km/h 3.5 mph /  5.6 km/h 41 % 0 in /  0.0 mm
14:28 93.2 °F /  34.0 °C 66 °F /  18.9 °C 29.9 in /  1013.8 hPa SW 5.8 mph /  9.3 km/h 5.8 mph /  9.3 km/h 41 % 0 in /  0.0 mm
14:33 93 °F /  33.9 °C 66.6 °F /  19.2 °C 29.9 in /  1013.8 hPa ESE 8.1 mph /  13.0 km/h 8.1 mph /  13.0 km/h 42 % 0 in /  0.0 mm
14:38 92.5 °F /  33.6 °C 65.5 °F /  18.6 °C 29.9 in /  1013.8 hPa ESE 8.1 mph /  13.0 km/h 8.1 mph /  13.0 km/h 41 % 0 in /  0.0 mm
14:43 92.7 °F /  33.7 °C 66.2 °F /  19.0 °C 29.9 in /  1013.8 hPa East 4 mph /  6.4 km/h 4 mph /  6.4 km/h 42 % 0 in /  0.0 mm
14:48 92.7 °F /  33.7 °C 65.5 °F /  18.6 °C 29.9 in /  1013.8 hPa SSE 6.2 mph /  10.0 km/h 6.2 mph /  10.0 km/h 41 % 0 in /  0.0 mm
14:54 92.1 °F /  33.4 °C 64.9 °F /  18.3 °C 29.9 in /  1013.8 hPa ESE 6.9 mph /  11.1 km/h 6.9 mph /  11.1 km/h 41 % 0 in /  0.0 mm
14:59 92.3 °F /  33.5 °C 65.1 °F /  18.4 °C 29.9 in /  1013.8 hPa ESE 6.9 mph /  11.1 km/h 6.9 mph /  11.1 km/h 41 % 0 in /  0.0 mm
15:04 93.7 °F /  34.3 °C 66.6 °F /  19.2 °C 29.9 in /  1013.8 hPa SE 6.9 mph /  11.1 km/h 6.9 mph /  11.1 km/h 41 % 0 in /  0.0 mm
15:09 93.6 °F /  34.2 °C 66.4 °F /  19.1 °C 29.9 in /  1013.8 hPa ENE 8.1 mph /  13.0 km/h 8.1 mph /  13.0 km/h 41 % 0 in /  0.0 mm
15:14 94.5 °F /  34.7 °C 67.1 °F /  19.5 °C 29.9 in /  1013.8 hPa East 4.6 mph /  7.4 km/h 4.6 mph /  7.4 km/h 41 % 0 in /  0.0 mm
15:19 92.8 °F /  33.8 °C 65.7 °F /  18.7 °C 29.9 in /  1013.8 hPa SE 8.1 mph /  13.0 km/h 8.1 mph /  13.0 km/h 41 % 0 in /  0.0 mm
15:24 92.7 °F /  33.7 °C 65.5 °F /  18.6 °C 29.9 in /  1013.8 hPa ENE 10.4 mph /  16.7 km/h 10.4 mph /  16.7 km/h 41 % 0 in /  0.0 mm
15:29 94.1 °F /  34.5 °C 66.7 °F /  19.3 °C 29.9 in /  1013.8 hPa WNW 4.6 mph /  7.4 km/h 4.6 mph /  7.4 km/h 41 % 0 in /  0.0 mm
15:34 95 °F /  35.0 °C 66.9 °F /  19.4 °C 29.9 in /  1013.8 hPa SW 5.8 mph /  9.3 km/h 5.8 mph /  9.3 km/h 40 % 0 in /  0.0 mm
15:39 95.9 °F /  35.5 °C 67.6 °F /  19.8 °C 29.9 in /  1013.8 hPa SW 6.9 mph /  11.1 km/h 6.9 mph /  11.1 km/h 40 % 0 in /  0.0 mm
15:44 97.2 °F /  36.2 °C 68.7 °F /  20.4 °C 29.9 in /  1013.8 hPa SW 4 mph /  6.4 km/h 4 mph /  6.4 km/h 40 % 0 in /  0.0 mm
15:49 96.6 °F /  35.9 °C 68.4 °F /  20.2 °C 29.9 in /  1013.8 hPa SSW 8.1 mph /  13.0 km/h 8.1 mph /  13.0 km/h 40 % 0 in /  0.0 mm
15:54 97.5 °F /  36.4 °C 69.1 °F /  20.6 °C 29.9 in /  1013.8 hPa South 5.9 mph /  9.5 km/h 5.9 mph /  9.5 km/h 40 % 0 in /  0.0 mm
15:59 97.5 °F /  36.4 °C 69.1 °F /  20.6 °C 29.9 in /  1013.8 hPa SSW 4.3 mph /  6.9 km/h 4.3 mph /  6.9 km/h 40 % 0 in /  0.0 mm
16:04 97.5 °F /  36.4 °C 69.1 °F /  20.6 °C 29.9 in /  1013.8 hPa SW 7.1 mph /  11.4 km/h 7.1 mph /  11.4 km/h 40 % 0 in /  0.0 mm
16:09 97.2 °F /  36.2 °C 68.7 °F /  20.4 °C 29.9 in /  1013.8 hPa WSW 3.5 mph /  5.6 km/h 3.5 mph /  5.6 km/h 40 % 0 in /  0.0 mm
16:14 97 °F /  36.1 °C 68.7 °F /  20.4 °C 29.9 in /  1013.8 hPa WSW 3.5 mph /  5.6 km/h 3.5 mph /  5.6 km/h 40 % 0 in /  0.0 mm
16:19 96.1 °F /  35.6 °C 67.8 °F /  19.9 °C 29.9 in /  1013.8 hPa SSW 9.7 mph /  15.6 km/h 9.7 mph /  15.6 km/h 40 % 0 in /  0.0 mm
16:35 94.8 °F /  34.9 °C 67.5 °F /  19.7 °C 29.9 in /  1013.8 hPa SSW 6.9 mph /  11.1 km/h 6.9 mph /  11.1 km/h 41 % 0 in /  0.0 mm
16:40 94.6 °F /  34.8 °C 67.3 °F /  19.6 °C 29.9 in /  1013.8 hPa SW 5.8 mph /  9.3 km/h 5.9 mph /  9.5 km/h 41 % 0 in /  0.0 mm
16:45 95.4 °F /  35.2 °C 67.3 °F /  19.6 °C 29.9 in /  1013.8 hPa SW 5.8 mph /  9.3 km/h 5.8 mph /  9.3 km/h 40 % 0 in /  0.0 mm
16:50 95.4 °F /  35.2 °C 67.3 °F /  19.6 °C 29.9 in /  1013.8 hPa SW 6.4 mph /  10.3 km/h 6.4 mph /  10.3 km/h 40 % 0 in /  0.0 mm
16:55 94.6 °F /  34.8 °C 67.3 °F /  19.6 °C 29.9 in /  1013.8 hPa SW 5.8 mph /  9.3 km/h 5.8 mph /  9.3 km/h 41 % 0 in /  0.0 mm
17:00 94.1 °F /  34.5 °C 67.5 °F /  19.7 °C 29.9 in /  1013.8 hPa SW 5.8 mph /  9.3 km/h 5.8 mph /  9.3 km/h 42 % 0 in /  0.0 mm
17:05 94.3 °F /  34.6 °C 67.6 °F /  19.8 °C 29.9 in /  1013.8 hPa SW 5.8 mph /  9.3 km/h 5.8 mph /  9.3 km/h 42 % 0 in /  0.0 mm
17:10 95 °F /  35.0 °C 67.6 °F /  19.8 °C 29.9 in /  1012.8 hPa SSW 4.6 mph /  7.4 km/h 4.6 mph /  7.4 km/h 41 % 0 in /  0.0 mm
17:15 95 °F /  35.0 °C 67.6 °F /  19.8 °C 29.9 in /  1012.8 hPa SSE 2.9 mph /  4.7 km/h 2.9 mph /  4.7 km/h 41 % 0 in /  0.0 mm
17:20 93.9 °F /  34.4 °C 67.3 °F /  19.6 °C 29.9 in /  1012.8 hPa East 3.1 mph /  5.0 km/h 3.1 mph /  5.0 km/h 42 % 0 in /  0.0 mm
17:25 91.9 °F /  33.3 °C 65.7 °F /  18.7 °C 29.9 in /  1013.8 hPa SE 7.4 mph /  11.9 km/h 7.4 mph /  11.9 km/h 42 % 0 in /  0.0 mm
17:30 90.3 °F /  32.4 °C 64.8 °F /  18.2 °C 29.9 in /  1013.8 hPa SE 5.8 mph /  9.3 km/h 5.8 mph /  9.3 km/h 43 % 0 in /  0.0 mm
17:35 90.3 °F /  32.4 °C 64.8 °F /  18.2 °C 29.9 in /  1013.8 hPa ESE 6.9 mph /  11.1 km/h 6.9 mph /  11.1 km/h 43 % 0 in /  0.0 mm
17:40 90.3 °F /  32.4 °C 64.8 °F /  18.2 °C 29.9 in /  1013.8 hPa ENE 5.8 mph /  9.3 km/h 5.8 mph /  9.3 km/h 43 % 0 in /  0.0 mm
17:45 89.8 °F /  32.1 °C 64.2 °F /  17.9 °C 29.9 in /  1013.8 hPa East 9.2 mph /  14.8 km/h 9.2 mph /  14.8 km/h 43 % 0 in /  0.0 mm
17:50 88.7 °F /  31.5 °C 63.3 °F /  17.4 °C 29.9 in /  1013.8 hPa SE 9.2 mph /  14.8 km/h 9.2 mph /  14.8 km/h 43 % 0 in /  0.0 mm
17:55 88 °F /  31.1 °C 63.3 °F /  17.4 °C 29.9 in /  1013.8 hPa ESE 12.7 mph /  20.4 km/h 12.7 mph /  20.4 km/h 44 % 0 in /  0.0 mm
17:56 88 °F /  31.1 °C 63.3 °F /  17.4 °C 29.9 in /  1013.8 hPa ESE 12.7 mph /  20.4 km/h 12.7 mph /  20.4 km/h 44 % 0 in /  0.0 mm
18:01 88 °F /  31.1 °C 63.3 °F /  17.4 °C 29.9 in /  1013.8 hPa ESE 10.9 mph /  17.5 km/h 10.9 mph /  17.5 km/h 44 % 0 in /  0.0 mm
18:06 87.4 °F /  30.8 °C 63.5 °F /  17.5 °C 29.9 in /  1013.8 hPa East 8.1 mph /  13.0 km/h 8.1 mph /  13.0 km/h 45 % 0 in /  0.0 mm
18:11 87.3 °F /  30.7 °C 64 °F /  17.8 °C 29.9 in /  1012.8 hPa ENE 8.1 mph /  13.0 km/h 8.1 mph /  13.0 km/h 46 % 0 in /  0.0 mm
18:16 87.1 °F /  30.6 °C 63.9 °F /  17.7 °C 29.9 in /  1012.8 hPa ESE 9 mph /  14.5 km/h 9 mph /  14.5 km/h 46 % 0 in /  0.0 mm
18:21 86.9 °F /  30.5 °C 64.2 °F /  17.9 °C 29.9 in /  1012.8 hPa ESE 11.5 mph /  18.5 km/h 11.5 mph /  18.5 km/h 47 % 0 in /  0.0 mm
18:26 86.5 °F /  30.3 °C 63.9 °F /  17.7 °C 29.9 in /  1013.8 hPa ENE 10.4 mph /  16.7 km/h 10.4 mph /  16.7 km/h 47 % 0 in /  0.0 mm
18:31 86.4 °F /  30.2 °C 64.4 °F /  18.0 °C 29.9 in /  1013.8 hPa East 8.1 mph /  13.0 km/h 8.1 mph /  13.0 km/h 48 % 0 in /  0.0 mm
18:36 85.6 °F /  29.8 °C 64.2 °F /  17.9 °C 29.9 in /  1013.8 hPa ENE 10.4 mph /  16.7 km/h 10.4 mph /  16.7 km/h 49 % 0 in /  0.0 mm
18:41 85.1 °F /  29.5 °C 64.4 °F /  18.0 °C 29.9 in /  1013.8 hPa SSW 9.2 mph /  14.8 km/h 9.2 mph /  14.8 km/h 50 % 0 in /  0.0 mm
18:46 84.7 °F /  29.3 °C 64.6 °F /  18.1 °C 29.9 in /  1013.8 hPa ESE 10.4 mph /  16.7 km/h 10.4 mph /  16.7 km/h 51 % 0 in /  0.0 mm
18:51 84.4 °F /  29.1 °C 64.8 °F /  18.2 °C 29.9 in /  1013.8 hPa East 13.8 mph /  22.2 km/h 13.8 mph /  22.2 km/h 52 % 0 in /  0.0 mm
18:56 84.2 °F /  29.0 °C 65.1 °F /  18.4 °C 30 in /  1014.8 hPa ENE 10.4 mph /  16.7 km/h 10.4 mph /  16.7 km/h 53 % 0 in /  0.0 mm
19:01 83.7 °F /  28.7 °C 65.8 °F /  18.8 °C 30 in /  1014.8 hPa East 11.5 mph /  18.5 km/h 11.5 mph /  18.5 km/h 55 % 0 in /  0.0 mm
19:06 83.5 °F /  28.6 °C 66 °F /  18.9 °C 30 in /  1014.8 hPa ENE 13.8 mph /  22.2 km/h 13.8 mph /  22.2 km/h 56 % 0 in /  0.0 mm
19:11 83.5 °F /  28.6 °C 66 °F /  18.9 °C 30 in /  1014.8 hPa ESE 10.4 mph /  16.7 km/h 10.4 mph /  16.7 km/h 56 % 0 in /  0.0 mm
19:15 75.2 °F /  24.0 °C 67.5 °F /  19.7 °C 30.1 in /  1017.8 hPa NE 2 mph /  3.2 km/h 3 mph /  4.8 km/h 77 % 0 in /  0.0 mm
19:16 83.1 °F /  28.4 °C 66.4 °F /  19.1 °C 30 in /  1014.8 hPa ESE 8.1 mph /  13.0 km/h 8.7 mph /  14.0 km/h 57 % 0 in /  0.0 mm
19:21 82.8 °F /  28.2 °C 66 °F /  18.9 °C 30 in /  1014.8 hPa ESE 5.8 mph /  9.3 km/h 6 mph /  9.7 km/h 57 % 0 in /  0.0 mm
19:25 75.2 °F /  24.0 °C 67.5 °F /  19.7 °C 30.1 in /  1017.8 hPa ENE 2 mph /  3.2 km/h 3 mph /  4.8 km/h 77 % 0 in /  0.0 mm
19:26 82.6 °F /  28.1 °C 66.4 °F /  19.1 °C 30 in /  1014.8 hPa ENE 12.7 mph /  20.4 km/h 12.7 mph /  20.4 km/h 58 % 0 in /  0.0 mm
19:31 82.2 °F /  27.9 °C 66.6 °F /  19.2 °C 30 in /  1014.8 hPa NNE 10.2 mph /  16.4 km/h 10.2 mph /  16.4 km/h 59 % 0 in /  0.0 mm
19:35 75 °F /  23.9 °C 67.3 °F /  19.6 °C 30.1 in /  1017.8 hPa NE 2 mph /  3.2 km/h 4 mph /  6.4 km/h 77 % 0 in /  0.0 mm
19:36 81.9 °F /  27.7 °C 66.6 °F /  19.2 °C 30 in /  1014.8 hPa East 10.4 mph /  16.7 km/h 10.4 mph /  16.7 km/h 60 % 0 in /  0.0 mm
19:41 81.9 °F /  27.7 °C 67.1 °F /  19.5 °C 30 in /  1014.8 hPa ESE 9.2 mph /  14.8 km/h 9.2 mph /  14.8 km/h 61 % 0 in /  0.0 mm
19:45 74.8 °F /  23.8 °C 67.5 °F /  19.7 °C 30.1 in /  1017.8 hPa NE 2 mph /  3.2 km/h 3 mph /  4.8 km/h 78 % 0 in /  0.0 mm
19:46 81.7 °F /  27.6 °C 66.9 °F /  19.4 °C 30 in /  1014.8 hPa NW 6.9 mph /  11.1 km/h 6.9 mph /  11.1 km/h 61 % 0 in /  0.0 mm
19:51 81.5 °F /  27.5 °C 67.3 °F /  19.6 °C 30 in /  1014.8 hPa SE 6.9 mph /  11.1 km/h 6.9 mph /  11.1 km/h 62 % 0 in /  0.0 mm
19:55 74.8 °F /  23.8 °C 67.5 °F /  19.7 °C 30.1 in /  1017.8 hPa NNE 1 mph /  1.6 km/h 2 mph /  3.2 km/h 78 % 0 in /  0.0 mm
19:56 81.1 °F /  27.3 °C 66.9 °F /  19.4 °C 30 in /  1014.8 hPa East 8.1 mph /  13.0 km/h 8.1 mph /  13.0 km/h 62 % 0 in /  0.0 mm
20:01 80.8 °F /  27.1 °C 66.9 °F /  19.4 °C 30 in /  1014.8 hPa ENE 6.4 mph /  10.3 km/h 6.4 mph /  10.3 km/h 63 % 0 in /  0.0 mm
20:05 74.7 °F /  23.7 °C 67.3 °F /  19.6 °C 30.1 in /  1017.8 hPa NE 1 mph /  1.6 km/h 2 mph /  3.2 km/h 78 % 0 in /  0.0 mm
20:06 80.8 °F /  27.1 °C 67.5 °F /  19.7 °C 30 in /  1014.8 hPa ESE 8.1 mph /  13.0 km/h 8.1 mph /  13.0 km/h 64 % 0 in /  0.0 mm
20:11 80.6 °F /  27.0 °C 67.3 °F /  19.6 °C 30 in /  1014.8 hPa NNE 10.4 mph /  16.7 km/h 10.4 mph /  16.7 km/h 64 % 0 in /  0.0 mm
20:15 74.7 °F /  23.7 °C 67.3 °F /  19.6 °C 30.1 in /  1017.8 hPa ENE 1 mph /  1.6 km/h 1 mph /  1.6 km/h 78 % 0 in /  0.0 mm
20:16 80.2 °F /  26.8 °C 67.8 °F /  19.9 °C 30 in /  1014.8 hPa SE 5.8 mph /  9.3 km/h 5.8 mph /  9.3 km/h 66 % 0 in /  0.0 mm
20:21 80.2 °F /  26.8 °C 67.8 °F /  19.9 °C 30 in /  1014.8 hPa NE 11.5 mph /  18.5 km/h 11.5 mph /  18.5 km/h 66 % 0 in /  0.0 mm
20:25 74.5 °F /  23.6 °C 67.3 °F /  19.6 °C 30.1 in /  1017.8 hPa Calm     78 % 0 in /  0.0 mm
20:26 80.1 °F /  26.7 °C 67.6 °F /  19.8 °C 30 in /  1014.8 hPa ENE 10.2 mph /  16.4 km/h 10.2 mph /  16.4 km/h 66 % 0 in /  0.0 mm
20:31 79.7 °F /  26.5 °C 67.8 °F /  19.9 °C 30 in /  1014.8 hPa ESE 10.5 mph /  16.9 km/h 10.5 mph /  16.9 km/h 67 % 0 in /  0.0 mm
20:32 79.7 °F /  26.5 °C 67.8 °F /  19.9 °C 30 in /  1014.8 hPa SE 10.4 mph /  16.7 km/h 10.4 mph /  16.7 km/h 67 % 0 in /  0.0 mm
20:35 74.3 °F /  23.5 °C 66.9 °F /  19.4 °C 30.1 in /  1017.8 hPa Calm     78 % 0 in /  0.0 mm
20:37 79.5 °F /  26.4 °C 68 °F /  20.0 °C 30 in /  1014.8 hPa SSE 7.8 mph /  12.6 km/h 7.8 mph /  12.6 km/h 68 % 0 in /  0.0 mm
20:42 79.3 °F /  26.3 °C 67.5 °F /  19.7 °C 30 in /  1015.8 hPa East 10.4 mph /  16.7 km/h 10.4 mph /  16.7 km/h 67 % 0 in /  0.0 mm
20:45 74.3 °F /  23.5 °C 67.5 °F /  19.7 °C 30.1 in /  1017.8 hPa Calm     79 % 0 in /  0.0 mm
20:47 79.2 °F /  26.2 °C 67.6 °F /  19.8 °C 30 in /  1015.8 hPa ENE 10.4 mph /  16.7 km/h 10.4 mph /  16.7 km/h 68 % 0 in /  0.0 mm
20:52 79.2 °F /  26.2 °C 67.6 °F /  19.8 °C 30 in /  1015.8 hPa ENE 11.5 mph /  18.5 km/h 11.5 mph /  18.5 km/h 68 % 0 in /  0.0 mm
20:55 74.3 °F /  23.5 °C 67.5 °F /  19.7 °C 30.1 in /  1017.8 hPa Calm   1 mph /  1.6 km/h 79 % 0 in /  0.0 mm
20:57 78.8 °F /  26.0 °C 67.3 °F /  19.6 °C 30 in /  1015.8 hPa East 6.9 mph /  11.1 km/h 6.9 mph /  11.1 km/h 68 % 0 in /  0.0 mm
21:02 78.6 °F /  25.9 °C 67.6 °F /  19.8 °C 30 in /  1015.8 hPa ENE 12.7 mph /  20.4 km/h 12.7 mph /  20.4 km/h 69 % 0 in /  0.0 mm
21:05 74.1 °F /  23.4 °C 67.3 °F /  19.6 °C 30.1 in /  1017.8 hPa Calm   2 mph /  3.2 km/h 79 % 0 in /  0.0 mm
21:07 78.6 °F /  25.9 °C 67.6 °F /  19.8 °C 30 in /  1015.8 hPa ENE 8.1 mph /  13.0 km/h 8.1 mph /  13.0 km/h 69 % 0 in /  0.0 mm
21:13 78.4 °F /  25.8 °C 67.5 °F /  19.7 °C 30 in /  1015.8 hPa ESE 9.2 mph /  14.8 km/h 9.2 mph /  14.8 km/h 69 % 0 in /  0.0 mm
21:15 73.9 °F /  23.3 °C 66.9 °F /  19.4 °C 30.1 in /  1017.8 hPa Calm     79 % 0 in /  0.0 mm
21:18 78.3 °F /  25.7 °C 67.6 °F /  19.8 °C 30 in /  1015.8 hPa ENE 10.4 mph /  16.7 km/h 10.4 mph /  16.7 km/h 70 % 0 in /  0.0 mm
21:23 78.3 °F /  25.7 °C 67.6 °F /  19.8 °C 30 in /  1014.8 hPa ESE 10.5 mph /  16.9 km/h 10.5 mph /  16.9 km/h 70 % 0 in /  0.0 mm
21:25 73.8 °F /  23.2 °C 66.7 °F /  19.3 °C 30.1 in /  1017.8 hPa Calm     79 % 0 in /  0.0 mm
21:28 78.1 °F /  25.6 °C 67.5 °F /  19.7 °C 30 in /  1014.8 hPa SE 9.2 mph /  14.8 km/h 9.2 mph /  14.8 km/h 70 % 0 in /  0.0 mm
21:33 77.9 °F /  25.5 °C 67.3 °F /  19.6 °C 30 in /  1014.8 hPa ESE 10.4 mph /  16.7 km/h 10.4 mph /  16.7 km/h 70 % 0 in /  0.0 mm
21:35 73.2 °F /  22.9 °C 66.7 °F /  19.3 °C 30.1 in /  1017.8 hPa Calm     80 % 0 in /  0.0 mm
21:38 77.9 °F /  25.5 °C 67.3 °F /  19.6 °C 30 in /  1015.8 hPa ENE 5.8 mph /  9.3 km/h 5.8 mph /  9.3 km/h 70 % 0 in /  0.0 mm
21:43 77.7 °F /  25.4 °C 67.3 °F /  19.6 °C 30 in /  1015.8 hPa East 9.2 mph /  14.8 km/h 9.2 mph /  14.8 km/h 70 % 0 in /  0.0 mm
21:45 73 °F /  22.8 °C 66.9 °F /  19.4 °C 30.1 in /  1017.8 hPa Calm     81 % 0 in /  0.0 mm
21:48 77.7 °F /  25.4 °C 67.3 °F /  19.6 °C 30 in /  1015.8 hPa ESE 8.1 mph /  13.0 km/h 8.1 mph /  13.0 km/h 70 % 0 in /  0.0 mm
21:53 77.5 °F /  25.3 °C 67.5 °F /  19.7 °C 30 in /  1015.8 hPa ESE 8.1 mph /  13.0 km/h 8.1 mph /  13.0 km/h 71 % 0 in /  0.0 mm
21:55 73 °F /  22.8 °C 66.9 °F /  19.4 °C 30.1 in /  1017.8 hPa NE 1 mph /  1.6 km/h 1 mph /  1.6 km/h 81 % 0 in /  0.0 mm
21:58 77.5 °F /  25.3 °C 67.5 °F /  19.7 °C 30 in /  1015.8 hPa ENE 6.2 mph /  10.0 km/h 6.2 mph /  10.0 km/h 71 % 0 in /  0.0 mm
22:03 77.4 °F /  25.2 °C 67.3 °F /  19.6 °C 30 in /  1015.8 hPa ENE 5.8 mph /  9.3 km/h 5.8 mph /  9.3 km/h 71 % 0 in /  0.0 mm
22:05 73 °F /  22.8 °C 67.3 °F /  19.6 °C 30.1 in /  1017.8 hPa NE 1 mph /  1.6 km/h 1 mph /  1.6 km/h 82 % 0 in /  0.0 mm
22:08 77.4 °F /  25.2 °C 67.6 °F /  19.8 °C 30 in /  1015.8 hPa ENE 4.6 mph /  7.4 km/h 4.6 mph /  7.4 km/h 72 % 0 in /  0.0 mm
22:13 77.2 °F /  25.1 °C 67.8 °F /  19.9 °C 30 in /  1015.8 hPa NE 5.8 mph /  9.3 km/h 5.8 mph /  9.3 km/h 73 % 0 in /  0.0 mm
22:15 73 °F /  22.8 °C 67.3 °F /  19.6 °C 30.1 in /  1017.8 hPa Calm   1 mph /  1.6 km/h 82 % 0 in /  0.0 mm
22:18 77 °F /  25.0 °C 67.6 °F /  19.8 °C 30 in /  1015.8 hPa East 5.4 mph /  8.7 km/h 5.4 mph /  8.7 km/h 73 % 0 in /  0.0 mm
22:23 76.8 °F /  24.9 °C 67.8 °F /  19.9 °C 30 in /  1016.8 hPa NE 6.2 mph /  10.0 km/h 6.2 mph /  10.0 km/h 74 % 0 in /  0.0 mm
22:25 73 °F /  22.8 °C 67.3 °F /  19.6 °C 30.1 in /  1017.8 hPa Calm     82 % 0 in /  0.0 mm
22:28 76.6 °F /  24.8 °C 68.2 °F /  20.1 °C 30 in /  1016.8 hPa East 6.9 mph /  11.1 km/h 6.9 mph /  11.1 km/h 75 % 0 in /  0.0 mm
22:33 76.6 °F /  24.8 °C 68.2 °F /  20.1 °C 30 in /  1016.8 hPa ENE 6.9 mph /  11.1 km/h 6.9 mph /  11.1 km/h 75 % 0 in /  0.0 mm
22:35 73 °F /  22.8 °C 67.3 °F /  19.6 °C 30.1 in /  1017.8 hPa ENE 1 mph /  1.6 km/h 1 mph /  1.6 km/h 82 % 0 in /  0.0 mm
22:38 76.5 °F /  24.7 °C 67.8 °F /  19.9 °C 30 in /  1016.8 hPa ENE 6.9 mph /  11.1 km/h 6.9 mph /  11.1 km/h 75 % 0 in /  0.0 mm
22:43 76.3 °F /  24.6 °C 67.8 °F /  19.9 °C 30 in /  1016.8 hPa East 5.8 mph /  9.3 km/h 5.8 mph /  9.3 km/h 75 % 0 in /  0.0 mm
22:45 73 °F /  22.8 °C 67.3 °F /  19.6 °C 30.1 in /  1017.8 hPa Calm   1 mph /  1.6 km/h 82 % 0 in /  0.0 mm
22:48 76.3 °F /  24.6 °C 67.8 °F /  19.9 °C 30 in /  1016.8 hPa NNE 3.8 mph /  6.1 km/h 3.8 mph /  6.1 km/h 75 % 0 in /  0.0 mm
22:53 76.1 °F /  24.5 °C 67.6 °F /  19.8 °C 30.1 in /  1017.8 hPa ENE 3.5 mph /  5.6 km/h 3.5 mph /  5.6 km/h 75 % 0 in /  0.0 mm
22:55 72.9 °F /  22.7 °C 66.9 °F /  19.4 °C 30.1 in /  1017.8 hPa Calm     82 % 0 in /  0.0 mm
22:58 76.1 °F /  24.5 °C 67.6 °F /  19.8 °C 30.1 in /  1017.8 hPa ENE 6.4 mph /  10.3 km/h 6.4 mph /  10.3 km/h 75 % 0 in /  0.0 mm
23:03 75.9 °F /  24.4 °C 67.5 °F /  19.7 °C 30.1 in /  1017.8 hPa ENE 5.8 mph /  9.3 km/h 5.8 mph /  9.3 km/h 75 % 0 in /  0.0 mm
23:05 72.7 °F /  22.6 °C 66.9 °F /  19.4 °C 30.1 in /  1017.8 hPa Calm   1 mph /  1.6 km/h 82 % 0 in /  0.0 mm
23:08 75.9 °F /  24.4 °C 67.8 °F /  19.9 °C 30.1 in /  1017.8 hPa East 5.9 mph /  9.5 km/h 5.9 mph /  9.5 km/h 76 % 0 in /  0.0 mm
23:13 75.9 °F /  24.4 °C 67.8 °F /  19.9 °C 30.1 in /  1017.8 hPa ENE 5.8 mph /  9.3 km/h 5.8 mph /  9.3 km/h 76 % 0 in /  0.0 mm
23:15 72.5 °F /  22.5 °C 66.7 °F /  19.3 °C 30 in /  1016.8 hPa Calm     82 % 0 in /  0.0 mm
23:18 75.9 °F /  24.4 °C 67.8 °F /  19.9 °C 30.1 in /  1017.8 hPa East 5.4 mph /  8.7 km/h 5.4 mph /  8.7 km/h 76 % 0 in /  0.0 mm
23:23 75.9 °F /  24.4 °C 67.5 °F /  19.7 °C 30.1 in /  1017.8 hPa ESE 5.8 mph /  9.3 km/h 5.8 mph /  9.3 km/h 75 % 0 in /  0.0 mm
23:25 72.1 °F /  22.3 °C 66.4 °F /  19.1 °C 30 in /  1016.8 hPa Calm     82 % 0 in /  0.0 mm
23:28 75.9 °F /  24.4 °C 67.8 °F /  19.9 °C 30.1 in /  1017.8 hPa East 3.5 mph /  5.6 km/h 3.5 mph /  5.6 km/h 76 % 0 in /  0.0 mm
23:33 75.7 °F /  24.3 °C 67.6 °F /  19.8 °C 30.1 in /  1017.8 hPa ENE 2.6 mph /  4.2 km/h 2.6 mph /  4.2 km/h 76 % 0 in /  0.0 mm
23:35 72.1 °F /  22.3 °C 66.7 °F /  19.3 °C 30.1 in /  1017.8 hPa Calm     83 % 0 in /  0.0 mm
23:38 75.7 °F /  24.3 °C 67.6 °F /  19.8 °C 30.1 in /  1017.8 hPa SE 5.9 mph /  9.5 km/h 5.9 mph /  9.5 km/h 76 % 0 in /  0.0 mm
23:43 75.6 °F /  24.2 °C 67.5 °F /  19.7 °C 30.1 in /  1017.8 hPa ENE 3.8 mph /  6.1 km/h 3.8 mph /  6.1 km/h 76 % 0 in /  0.0 mm
23:45 72 °F /  22.2 °C 66.6 °F /  19.2 °C 30 in /  1016.8 hPa Calm   1 mph /  1.6 km/h 83 % 0 in /  0.0 mm
23:48 75.6 °F /  24.2 °C 67.8 °F /  19.9 °C 30.1 in /  1017.8 hPa ESE 5.6 mph /  9.0 km/h 5.6 mph /  9.0 km/h 77 % 0 in /  0.0 mm
23:53 75.6 °F /  24.2 °C 67.8 °F /  19.9 °C 30.1 in /  1017.8 hPa ENE 3.5 mph /  5.6 km/h 3.5 mph /  5.6 km/h 77 % 0 in /  0.0 mm
23:55 71.8 °F /  22.1 °C 66.4 °F /  19.1 °C 30 in /  1016.8 hPa West 1 mph /  1.6 km/h 1 mph /  1.6 km/h 83 % 0 in /  0.0 mm
23:58 75.4 °F /  24.1 °C 67.3 °F /  19.6 °C 30.1 in /  1017.8 hPa NNE 3.5 mph /  5.6 km/h 3.5 mph /  5.6 km/h 76 % 0 in /  0.0 mm
Meteo Sesrovires
Elogis d' Weather Underground - 3.5 mb

Guio original per  Jim McMurry - jmcmurry@mwt.net Adaptat per a la plantilla per  Wim van der Kuil - Leuven-Template.eu

Trobareu la nostra informacio del temps tambe a:

Weather Underground

AWEKAS